createdAt,value
2023-02-13T00:01:16.504Z,5.20
2023-02-13T00:03:46.173Z,4.40
2023-02-13T00:06:15.018Z,5.90
2023-02-13T00:08:43.238Z,4.70
2023-02-13T00:11:15.945Z,4.30
2023-02-13T00:13:51.799Z,3.40
2023-02-13T00:16:20.111Z,4.20
2023-02-13T00:18:48.227Z,4.70
2023-02-13T00:21:16.353Z,4.70
2023-02-13T00:23:44.506Z,5.50
2023-02-13T00:26:13.448Z,3.80
2023-02-13T00:28:44.566Z,4.80
2023-02-13T00:31:14.205Z,3.50
2023-02-13T00:33:43.120Z,5.90
2023-02-13T00:36:16.182Z,3.70
2023-02-13T00:38:44.206Z,3.70
2023-02-13T00:41:13.072Z,3.00
2023-02-13T00:43:41.412Z,3.30
2023-02-13T00:46:09.777Z,3.50
2023-02-13T00:48:38.138Z,4.10
2023-02-13T00:51:07.286Z,4.10
2023-02-13T00:53:35.747Z,6.30
2023-02-13T00:56:03.948Z,4.60
2023-02-13T00:58:35.101Z,5.80
2023-02-13T01:01:03.425Z,2.90
2023-02-13T01:03:31.952Z,5.10
2023-02-13T01:06:00.656Z,3.20
2023-02-13T01:08:28.854Z,4.60
2023-02-13T01:10:57.445Z,4.00
2023-02-13T01:13:26.662Z,3.30
2023-02-13T01:15:59.720Z,4.60
2023-02-13T01:18:30.218Z,2.40
2023-02-13T01:20:58.552Z,5.20
2023-02-13T01:23:33.597Z,3.40
2023-02-13T01:26:03.650Z,2.80
2023-02-13T01:28:32.082Z,3.30
2023-02-13T01:31:01.006Z,4.30
2023-02-13T01:33:30.454Z,2.80
2023-02-13T01:36:00.490Z,3.10
2023-02-13T01:38:31.698Z,3.00
2023-02-13T01:41:01.050Z,4.80
2023-02-13T01:43:44.891Z,1.90
2023-02-13T01:46:13.669Z,2.70
2023-02-13T01:48:41.987Z,5.00
2023-02-13T01:51:13.462Z,4.10
2023-02-13T01:53:46.940Z,3.50
2023-02-13T01:56:18.390Z,3.40
2023-02-13T01:58:47.569Z,4.40
2023-02-13T02:01:21.172Z,3.70
2023-02-13T02:03:52.034Z,2.70
2023-02-13T02:06:35.006Z,3.50
2023-02-13T02:09:04.359Z,3.90
2023-02-13T02:11:35.149Z,3.80
2023-02-13T02:14:07.395Z,3.20
2023-02-13T02:16:35.959Z,2.70
2023-02-13T02:19:05.771Z,3.50
2023-02-13T02:21:45.704Z,5.20
2023-02-13T02:26:42.066Z,3.80
2023-02-13T02:29:38.572Z,3.40
2023-02-13T02:32:15.814Z,2.90
2023-02-13T02:34:52.757Z,3.10
2023-02-13T02:37:24.176Z,3.90
2023-02-13T02:40:08.064Z,3.90
2023-02-13T02:42:55.573Z,2.50
2023-02-13T02:48:15.829Z,5.00
2023-02-13T02:50:46.932Z,2.40
2023-02-13T02:53:17.966Z,2.30
2023-02-13T02:56:05.114Z,2.40
2023-02-13T02:58:59.500Z,3.30
2023-02-13T03:01:47.702Z,3.10
2023-02-13T03:04:39.426Z,4.50
2023-02-13T03:07:08.447Z,2.70
2023-02-13T03:09:56.924Z,3.80
2023-02-13T03:12:49.295Z,3.00
2023-02-13T03:15:17.469Z,2.20
2023-02-13T03:18:04.232Z,2.20
2023-02-13T03:20:53.784Z,3.10
2023-02-13T03:25:53.260Z,2.30
2023-02-13T03:28:40.606Z,2.20
2023-02-13T03:31:08.924Z,3.50
2023-02-13T03:33:40.095Z,3.30
2023-02-13T03:36:36.347Z,2.60
2023-02-13T03:39:18.297Z,1.80
2023-02-13T03:41:51.571Z,3.20
2023-02-13T03:44:20.777Z,2.50
2023-02-13T03:46:49.305Z,3.40
2023-02-13T03:49:42.289Z,2.50
2023-02-13T03:52:36.733Z,4.80
2023-02-13T03:55:31.553Z,3.70
2023-02-13T03:58:19.981Z,4.30
2023-02-13T04:00:51.744Z,3.70
2023-02-13T04:03:26.708Z,3.40
2023-02-13T04:05:57.087Z,3.50
2023-02-13T04:08:25.280Z,2.80
2023-02-13T04:11:19.628Z,4.30
2023-02-13T04:13:58.629Z,2.70
2023-02-13T04:16:41.592Z,2.20
2023-02-13T04:19:09.906Z,2.90
2023-02-13T04:21:40.332Z,2.80
2023-02-13T04:24:09.026Z,2.20
2023-02-13T04:26:38.143Z,3.20
2023-02-13T04:29:06.269Z,2.60
2023-02-13T04:31:34.779Z,2.50
2023-02-13T04:34:02.981Z,2.70
2023-02-13T04:36:31.288Z,4.90
2023-02-13T04:38:59.513Z,3.70
2023-02-13T04:41:28.055Z,4.20
2023-02-13T04:43:57.707Z,2.60
2023-02-13T04:46:25.972Z,4.10
2023-02-13T04:48:54.221Z,3.00
2023-02-13T04:51:22.394Z,5.80
2023-02-13T04:53:50.631Z,4.20
2023-02-13T04:56:19.967Z,4.10
2023-02-13T04:58:48.658Z,2.40
2023-02-13T05:01:17.264Z,3.90
2023-02-13T05:03:45.449Z,4.60
2023-02-13T05:06:13.727Z,4.50
2023-02-13T05:08:42.853Z,4.00
2023-02-13T05:11:11.181Z,5.80
2023-02-13T05:13:43.128Z,3.70
2023-02-13T05:16:11.478Z,6.00
2023-02-13T05:18:39.624Z,3.90
2023-02-13T05:21:26.672Z,4.40
2023-02-13T05:23:55.106Z,3.60
2023-02-13T05:26:23.776Z,4.00
2023-02-13T05:29:10.634Z,5.70
2023-02-13T05:31:38.973Z,6.40
2023-02-13T05:34:07.548Z,5.30
2023-02-13T05:36:35.695Z,6.40
2023-02-13T05:39:03.952Z,3.20
2023-02-13T05:41:32.551Z,3.00
2023-02-13T05:44:00.737Z,6.70
2023-02-13T05:46:29.215Z,4.70
2023-02-13T05:51:39.033Z,4.50
2023-02-13T05:54:07.243Z,3.30
2023-02-13T05:56:35.808Z,3.70
2023-02-13T05:59:04.210Z,3.80
2023-02-13T06:01:32.756Z,3.50
2023-02-13T06:04:03.670Z,5.00
2023-02-13T06:06:32.700Z,6.40
2023-02-13T06:09:01.287Z,5.40
2023-02-13T06:11:29.791Z,5.50
2023-02-13T06:13:58.021Z,4.50
2023-02-13T06:16:31.396Z,4.00
2023-02-13T06:18:59.812Z,5.90
2023-02-13T06:21:28.004Z,5.00
2023-02-13T06:23:56.443Z,4.10
2023-02-13T06:26:24.665Z,5.00
2023-02-13T06:28:52.712Z,6.50
2023-02-13T06:31:20.946Z,5.00
2023-02-13T06:33:49.401Z,5.90
2023-02-13T06:36:17.548Z,5.40
2023-02-13T06:38:45.655Z,5.90
2023-02-13T06:41:14.184Z,5.30
2023-02-13T06:43:42.307Z,5.20
2023-02-13T06:46:11.271Z,6.40
2023-02-13T06:48:39.435Z,5.80
2023-02-13T06:51:07.733Z,5.60
2023-02-13T06:53:35.911Z,6.30
2023-02-13T06:56:04.369Z,5.30
2023-02-13T06:58:34.257Z,5.30
2023-02-13T07:01:02.429Z,9.10
2023-02-13T07:03:30.869Z,6.60
2023-02-13T07:05:59.147Z,7.30
2023-02-13T07:08:27.392Z,7.10
2023-02-13T07:10:56.605Z,5.60
2023-02-13T07:13:25.422Z,5.00
2023-02-13T07:15:53.497Z,4.80
2023-02-13T07:18:21.879Z,7.30
2023-02-13T07:20:50.173Z,7.40
2023-02-13T07:23:18.580Z,7.40
2023-02-13T07:25:47.114Z,8.10
2023-02-13T07:28:15.395Z,6.60
2023-02-13T07:30:43.769Z,6.30
2023-02-13T07:33:13.578Z,9.80
2023-02-13T07:35:46.399Z,6.80
2023-02-13T07:38:15.784Z,7.30
2023-02-13T07:40:43.931Z,9.00
2023-02-13T07:43:12.785Z,6.40
2023-02-13T07:45:42.588Z,7.50
2023-02-13T07:48:10.714Z,6.40
2023-02-13T07:50:39.075Z,13.10
2023-02-13T07:53:07.374Z,7.50
2023-02-13T07:55:35.729Z,6.30
2023-02-13T07:58:03.907Z,8.90
2023-02-13T08:00:32.420Z,8.50
2023-02-13T08:03:01.178Z,12.20
2023-02-13T08:05:29.689Z,9.50
2023-02-13T08:07:58.409Z,8.30
2023-02-13T08:10:49.877Z,7.60
2023-02-13T08:13:20.432Z,10.00
2023-02-13T08:15:48.840Z,9.50
2023-02-13T08:18:18.984Z,8.20
2023-02-13T08:20:48.772Z,10.00
2023-02-13T08:23:17.089Z,13.40
2023-02-13T08:25:47.918Z,9.40
2023-02-13T08:28:16.774Z,12.00
2023-02-13T08:30:44.976Z,10.60
2023-02-13T08:33:13.838Z,9.30
2023-02-13T08:35:42.156Z,8.60
2023-02-13T08:38:13.538Z,12.10
2023-02-13T08:40:42.622Z,10.00
2023-02-13T08:43:10.868Z,11.30
2023-02-13T08:45:39.934Z,10.10
2023-02-13T08:48:08.156Z,9.60
2023-02-13T08:50:37.452Z,12.80
2023-02-13T08:53:06.045Z,9.30
2023-02-13T08:55:34.272Z,9.50
2023-02-13T08:58:03.157Z,10.40
2023-02-13T09:00:31.958Z,11.10
2023-02-13T09:03:03.354Z,12.80
2023-02-13T09:05:33.433Z,11.20
2023-02-13T09:08:03.857Z,12.60
2023-02-13T09:10:32.552Z,13.20
2023-02-13T09:13:01.568Z,11.70
2023-02-13T09:15:30.314Z,11.70
2023-02-13T09:17:58.541Z,11.00
2023-02-13T09:20:26.717Z,10.30
2023-02-13T09:22:55.554Z,12.50
2023-02-13T09:25:24.666Z,12.10
2023-02-13T09:27:53.091Z,12.80
2023-02-13T09:30:25.593Z,12.20
2023-02-13T09:32:54.467Z,12.30
2023-02-13T09:35:22.778Z,13.10
2023-02-13T09:37:51.233Z,12.60
2023-02-13T09:40:21.495Z,12.20
2023-02-13T09:42:49.645Z,13.30
2023-02-13T09:45:17.779Z,10.50
2023-02-13T09:47:47.229Z,14.00
2023-02-13T09:50:20.171Z,12.40
2023-02-13T09:52:48.325Z,12.10
2023-02-13T09:55:17.313Z,12.10
2023-02-13T09:57:49.088Z,11.60
2023-02-13T10:00:53.065Z,12.50
2023-02-13T10:03:44.635Z,12.10
2023-02-13T10:06:31.099Z,11.00
2023-02-13T10:09:02.563Z,11.60
2023-02-13T10:11:36.815Z,12.10
2023-02-13T10:14:17.668Z,11.80
2023-02-13T10:17:03.126Z,9.00
2023-02-13T10:19:42.088Z,10.20
2023-02-13T10:22:18.235Z,10.30
2023-02-13T10:24:51.058Z,10.40
2023-02-13T10:27:23.542Z,10.90
2023-02-13T10:30:05.903Z,11.00
2023-02-13T10:32:38.216Z,12.80
2023-02-13T10:35:15.118Z,11.90
2023-02-13T10:37:43.729Z,9.90
2023-02-13T10:40:12.300Z,8.50
2023-02-13T10:42:42.152Z,12.20
2023-02-13T10:45:10.578Z,12.20
2023-02-13T10:47:53.914Z,11.00
2023-02-13T10:50:22.175Z,12.10
2023-02-13T10:52:51.931Z,9.60
2023-02-13T10:55:20.262Z,10.40
2023-02-13T10:57:57.829Z,9.10
2023-02-13T11:02:56.001Z,9.30
2023-02-13T11:05:25.512Z,9.70
2023-02-13T11:07:53.637Z,10.60
2023-02-13T11:10:23.272Z,10.50
2023-02-13T11:12:51.797Z,9.10
2023-02-13T11:15:30.228Z,9.60
2023-02-13T11:17:59.873Z,7.70
2023-02-13T11:20:35.616Z,8.80
2023-02-13T11:23:22.955Z,9.50
2023-02-13T11:25:58.887Z,9.00
2023-02-13T11:28:28.088Z,10.30
2023-02-13T11:31:16.968Z,11.10
2023-02-13T11:33:45.394Z,10.30
2023-02-13T11:36:15.096Z,8.90
2023-02-13T11:38:43.271Z,8.40
2023-02-13T11:41:12.622Z,9.80
2023-02-13T11:43:47.021Z,8.30
2023-02-13T11:46:23.574Z,6.60
2023-02-13T11:48:58.277Z,7.00
2023-02-13T11:51:45.804Z,7.00
2023-02-13T11:57:03.135Z,8.60
2023-02-13T11:59:33.741Z,6.00
2023-02-13T12:02:02.834Z,6.40
2023-02-13T12:04:31.547Z,8.50
2023-02-13T12:07:01.383Z,7.40
2023-02-13T12:09:29.871Z,7.30
2023-02-13T12:11:59.560Z,7.60
2023-02-13T12:14:30.276Z,9.20
2023-02-13T12:17:10.887Z,8.60
2023-02-13T12:19:42.882Z,7.00
2023-02-13T12:22:30.775Z,7.10
2023-02-13T12:25:18.513Z,6.90
2023-02-13T12:27:53.055Z,8.10
2023-02-13T12:30:39.990Z,6.80
2023-02-13T12:33:18.332Z,8.70
2023-02-13T12:35:57.673Z,10.10
2023-02-13T12:38:43.188Z,8.70
2023-02-13T12:41:17.708Z,8.10
2023-02-13T12:44:05.065Z,9.10
2023-02-13T12:46:33.128Z,7.50
2023-02-13T12:49:22.226Z,6.90
2023-02-13T12:52:09.135Z,7.10
2023-02-13T12:54:44.299Z,6.90
2023-02-13T12:57:15.190Z,6.20
2023-02-13T13:00:08.788Z,7.00
2023-02-13T13:02:56.325Z,6.90
2023-02-13T13:05:24.623Z,6.10
2023-02-13T13:07:56.778Z,6.40
2023-02-13T13:10:29.554Z,8.20
2023-02-13T13:12:57.909Z,6.90
2023-02-13T13:15:48.153Z,7.80
2023-02-13T13:18:20.149Z,8.40
2023-02-13T13:20:54.290Z,6.80
2023-02-13T13:23:35.001Z,6.90
2023-02-13T13:26:09.376Z,6.60
2023-02-13T13:28:45.180Z,5.90
2023-02-13T13:31:15.130Z,5.90
2023-02-13T13:33:44.382Z,7.10
2023-02-13T13:36:19.479Z,8.80
2023-02-13T13:38:53.635Z,6.60
2023-02-13T13:41:40.904Z,7.30
2023-02-13T13:44:15.105Z,6.20
2023-02-13T13:46:43.298Z,6.80
2023-02-13T13:49:12.035Z,8.90
2023-02-13T13:51:40.369Z,7.40
2023-02-13T13:54:17.784Z,8.30
2023-02-13T13:57:02.268Z,8.40
2023-02-13T13:59:33.608Z,8.70
2023-02-13T14:02:17.702Z,8.70
2023-02-13T14:05:01.179Z,7.30
2023-02-13T14:07:37.102Z,8.60
2023-02-13T14:10:06.370Z,8.20
2023-02-13T14:12:34.895Z,8.20
2023-02-13T14:15:03.381Z,7.60
2023-02-13T14:17:45.250Z,7.30
2023-02-13T14:20:32.090Z,7.60
2023-02-13T14:23:07.792Z,6.90
2023-02-13T14:25:36.043Z,6.60
2023-02-13T14:28:04.684Z,7.80
2023-02-13T14:30:36.836Z,7.30
2023-02-13T14:33:09.429Z,6.70
2023-02-13T14:35:38.038Z,6.20
2023-02-13T14:38:08.255Z,7.00
2023-02-13T14:40:44.774Z,6.10
2023-02-13T14:43:32.012Z,6.20
2023-02-13T14:46:04.106Z,6.00
2023-02-13T14:48:51.198Z,5.70
2023-02-13T14:51:33.969Z,6.80
2023-02-13T14:54:04.918Z,6.00
2023-02-13T14:56:33.368Z,7.60
2023-02-13T14:59:07.111Z,5.50
2023-02-13T15:01:47.227Z,5.20
2023-02-13T15:04:17.604Z,5.70
2023-02-13T15:06:46.900Z,5.70
2023-02-13T15:09:18.346Z,6.50
2023-02-13T15:11:47.627Z,7.00
2023-02-13T15:14:23.250Z,8.60
2023-02-13T15:16:59.108Z,7.10
2023-02-13T15:19:28.534Z,6.30
2023-02-13T15:21:57.635Z,8.00
2023-02-13T15:24:26.528Z,8.00
2023-02-13T15:27:04.477Z,8.10
2023-02-13T15:29:47.852Z,7.10
2023-02-13T15:32:18.475Z,8.90
2023-02-13T15:34:47.415Z,8.60
2023-02-13T15:37:27.543Z,11.10
2023-02-13T15:39:56.210Z,10.10
2023-02-13T15:42:24.378Z,8.10
2023-02-13T15:44:53.325Z,10.00
2023-02-13T15:47:29.619Z,9.00
2023-02-13T15:49:58.280Z,7.80
2023-02-13T15:52:33.831Z,7.80
2023-02-13T15:55:04.157Z,8.70
2023-02-13T15:57:33.489Z,8.20
2023-02-13T16:00:02.123Z,8.30
2023-02-13T16:02:41.973Z,9.30
2023-02-13T16:05:11.558Z,8.40
2023-02-13T16:07:52.781Z,6.90
2023-02-13T16:10:25.509Z,8.80
2023-02-13T16:12:53.747Z,7.60
2023-02-13T16:15:28.016Z,8.10
2023-02-13T16:17:56.664Z,8.50
2023-02-13T16:20:25.980Z,9.60
2023-02-13T16:23:07.712Z,9.50
2023-02-13T16:25:36.784Z,7.60
2023-02-13T16:28:11.757Z,8.10
2023-02-13T16:30:43.928Z,8.60
2023-02-13T16:33:15.754Z,8.20
2023-02-13T16:35:44.995Z,7.60
2023-02-13T16:38:28.640Z,8.80
2023-02-13T16:40:58.770Z,10.20
2023-02-13T16:43:37.130Z,8.20
2023-02-13T16:46:20.710Z,13.20
2023-02-13T16:48:59.149Z,7.30
2023-02-13T16:51:32.513Z,7.60
2023-02-13T16:54:02.438Z,9.10
2023-02-13T16:56:44.085Z,10.60
2023-02-13T16:59:15.614Z,8.20
2023-02-13T17:01:44.099Z,9.20
2023-02-13T17:04:30.733Z,9.40
2023-02-13T17:06:59.302Z,9.60
2023-02-13T17:09:28.167Z,9.70
2023-02-13T17:11:56.566Z,9.80
2023-02-13T17:14:24.797Z,8.20
2023-02-13T17:16:53.482Z,9.80
2023-02-13T17:19:22.919Z,8.70
2023-02-13T17:21:53.573Z,7.90
2023-02-13T17:24:21.879Z,8.70
2023-02-13T17:26:50.208Z,9.80
2023-02-13T17:29:18.639Z,8.80
2023-02-13T17:31:47.083Z,8.30
2023-02-13T17:34:15.743Z,8.30
2023-02-13T17:36:44.114Z,8.00
2023-02-13T17:39:12.289Z,8.80
2023-02-13T17:41:43.075Z,6.90
2023-02-13T17:44:12.507Z,7.10
2023-02-13T17:46:41.148Z,7.40
2023-02-13T17:49:09.676Z,7.60
2023-02-13T17:51:39.005Z,6.00
2023-02-13T17:54:08.408Z,8.00
2023-02-13T17:56:36.583Z,8.10
2023-02-13T17:59:04.935Z,6.90
2023-02-13T18:01:34.470Z,6.90
2023-02-13T18:04:02.828Z,7.20
2023-02-13T18:08:04.778Z,8.60
2023-02-13T18:10:34.572Z,8.00
2023-02-13T18:13:06.072Z,7.10
2023-02-13T18:15:35.141Z,8.20
2023-02-13T18:18:04.048Z,7.40
2023-02-13T18:20:32.698Z,6.00
2023-02-13T18:23:01.361Z,8.30
2023-02-13T18:25:29.994Z,6.40
2023-02-13T18:27:58.204Z,7.30
2023-02-13T18:30:26.677Z,8.90
2023-02-13T18:32:55.729Z,6.50
2023-02-13T18:35:24.485Z,6.30
2023-02-13T18:37:52.929Z,6.30
2023-02-13T18:40:21.701Z,6.80
2023-02-13T18:42:51.276Z,6.50
2023-02-13T18:45:19.437Z,5.90
2023-02-13T18:47:48.348Z,5.70
2023-02-13T18:50:16.796Z,6.20
2023-02-13T18:52:45.343Z,6.30
2023-02-13T18:55:13.832Z,6.20
2023-02-13T18:57:43.686Z,6.70
2023-02-13T19:00:14.510Z,4.90
2023-02-13T19:02:42.836Z,5.60
2023-02-13T19:05:10.990Z,5.80
2023-02-13T19:07:39.162Z,5.10
2023-02-13T19:10:07.846Z,6.00
2023-02-13T19:12:36.664Z,5.90
2023-02-13T19:15:06.228Z,5.70
2023-02-13T19:17:35.423Z,5.40
2023-02-13T19:20:04.815Z,5.70
2023-02-13T19:22:33.517Z,5.80
2023-02-13T19:25:03.370Z,5.00
2023-02-13T19:27:32.480Z,5.80
2023-02-13T19:30:01.230Z,5.40
2023-02-13T19:32:30.297Z,6.10
2023-02-13T19:34:58.676Z,4.20
2023-02-13T19:37:35.797Z,4.80
2023-02-13T19:40:12.079Z,5.50
2023-02-13T19:42:40.878Z,4.40
2023-02-13T19:45:09.506Z,5.50
2023-02-13T19:47:37.935Z,4.80
2023-02-13T19:50:07.019Z,4.30
2023-02-13T19:52:35.372Z,4.50
2023-02-13T19:55:04.528Z,4.80
2023-02-13T19:57:32.692Z,5.90
2023-02-13T20:00:20.746Z,4.40
2023-02-13T20:02:51.350Z,4.60
2023-02-13T20:05:19.903Z,6.20
2023-02-13T20:07:48.241Z,4.50
2023-02-13T20:10:17.078Z,4.60
2023-02-13T20:12:45.189Z,4.30
2023-02-13T20:15:14.093Z,4.50
2023-02-13T20:17:42.789Z,4.30
2023-02-13T20:20:11.466Z,5.00
2023-02-13T20:22:39.976Z,4.50
2023-02-13T20:25:10.526Z,4.80
2023-02-13T20:27:42.482Z,4.10
2023-02-13T20:30:13.560Z,4.70
2023-02-13T20:32:42.649Z,4.90
2023-02-13T20:35:10.974Z,5.10
2023-02-13T20:37:40.396Z,4.30
2023-02-13T20:40:09.121Z,3.90
2023-02-13T20:42:37.528Z,5.50
2023-02-13T20:45:11.119Z,6.30
2023-02-13T20:47:40.711Z,4.50
2023-02-13T20:50:09.180Z,5.40
2023-02-13T20:52:37.518Z,6.70
2023-02-13T20:55:06.468Z,4.80
2023-02-13T20:57:35.130Z,5.20
2023-02-13T21:00:04.896Z,5.30
2023-02-13T21:02:33.185Z,4.60
2023-02-13T21:05:01.293Z,4.30
2023-02-13T21:07:31.753Z,5.60
2023-02-13T21:09:59.999Z,4.20
2023-02-13T21:12:28.176Z,4.50
2023-02-13T21:14:56.760Z,4.10
2023-02-13T21:17:26.191Z,5.10
2023-02-13T21:19:54.444Z,4.50
2023-02-13T21:22:22.633Z,4.40
2023-02-13T21:24:51.486Z,5.50
2023-02-13T21:27:19.942Z,5.80
2023-02-13T21:29:48.196Z,4.70
2023-02-13T21:32:16.584Z,4.70
2023-02-13T21:34:44.726Z,4.50
2023-02-13T21:37:14.956Z,4.40
2023-02-13T21:39:43.873Z,4.40
2023-02-13T21:42:11.999Z,5.00
2023-02-13T21:44:40.382Z,3.90
2023-02-13T21:47:08.718Z,5.50
2023-02-13T21:49:38.148Z,5.10
2023-02-13T21:52:06.364Z,4.30
2023-02-13T21:54:43.693Z,4.70
2023-02-13T21:57:12.177Z,4.10
2023-02-13T21:59:40.507Z,5.00
2023-02-13T22:02:09.780Z,5.00
2023-02-13T22:04:38.520Z,5.80
2023-02-13T22:07:06.728Z,3.70
2023-02-13T22:09:35.387Z,3.70
2023-02-13T22:12:04.596Z,3.90
2023-02-13T22:14:33.378Z,4.10
2023-02-13T22:17:01.758Z,4.10
2023-02-13T22:19:33.495Z,3.40
2023-02-13T22:22:01.594Z,3.20
2023-02-13T22:24:29.855Z,3.40
2023-02-13T22:26:58.177Z,3.30
2023-02-13T22:29:27.151Z,4.40
2023-02-13T22:31:55.665Z,3.50
2023-02-13T22:34:24.075Z,3.20
2023-02-13T22:36:52.302Z,3.70
2023-02-13T22:39:20.554Z,3.50
2023-02-13T22:41:49.695Z,3.70
2023-02-13T22:44:18.182Z,3.40
2023-02-13T22:46:46.325Z,3.70
2023-02-13T22:49:14.504Z,4.10
2023-02-13T22:51:42.962Z,4.20
2023-02-13T22:54:11.335Z,3.60
2023-02-13T22:56:39.507Z,4.60
2023-02-13T22:59:07.607Z,4.10
2023-02-13T23:01:35.859Z,4.60
2023-02-13T23:04:04.099Z,3.60
2023-02-13T23:06:35.265Z,3.70
2023-02-13T23:09:03.565Z,3.90
2023-02-13T23:11:50.758Z,3.60
2023-02-13T23:14:22.031Z,3.20
2023-02-13T23:17:08.860Z,3.30
2023-02-13T23:19:38.482Z,3.70
2023-02-13T23:22:06.962Z,3.80
2023-02-13T23:24:35.270Z,4.10
2023-02-13T23:27:03.292Z,3.00
2023-02-13T23:29:31.416Z,3.30
2023-02-13T23:31:59.942Z,3.30
2023-02-13T23:34:28.084Z,3.40
2023-02-13T23:36:56.383Z,3.40
2023-02-13T23:39:24.585Z,2.70
2023-02-13T23:41:52.971Z,4.70
2023-02-13T23:44:21.400Z,3.40
2023-02-13T23:46:49.776Z,4.00
2023-02-13T23:49:18.156Z,2.60
2023-02-13T23:51:46.973Z,3.10
2023-02-13T23:54:16.382Z,3.00
2023-02-13T23:56:44.682Z,3.00
2023-02-13T23:59:13.012Z,2.80
